sensor_id;sensor_type;location;lat;lon;timestamp;pressure;altitude;pressure_sealevel;temperature;humidity
27014;BME280;14556;52.222;4.510;2022-10-17T00:00:28;101421.84;;;12.49;100.00
27014;BME280;14556;52.222;4.510;2022-10-17T00:02:55;101412.16;;;12.48;100.00
27014;BME280;14556;52.222;4.510;2022-10-17T00:05:22;101409.03;;;12.44;100.00
27014;BME280;14556;52.222;4.510;2022-10-17T00:07:51;101402.84;;;12.43;100.00
27014;BME280;14556;52.222;4.510;2022-10-17T00:10:18;101401.84;;;12.44;100.00
27014;BME280;14556;52.222;4.510;2022-10-17T00:12:45;101400.34;;;12.42;100.00
27014;BME280;14556;52.222;4.510;2022-10-17T00:15:17;101407.84;;;12.47;100.00
27014;BME280;14556;52.222;4.510;2022-10-17T00:17:44;101405.97;;;12.47;100.00
27014;BME280;14556;52.222;4.510;2022-10-17T00:20:11;101396.25;;;12.46;100.00
27014;BME280;14556;52.222;4.510;2022-10-17T00:22:38;101398.75;;;12.48;100.00
27014;BME280;14556;52.222;4.510;2022-10-17T00:25:05;101399.16;;;12.44;100.00
27014;BME280;14556;52.222;4.510;2022-10-17T00:27:39;101394.63;;;12.45;100.00
27014;BME280;14556;52.222;4.510;2022-10-17T00:30:09;101386.56;;;12.45;100.00
27014;BME280;14556;52.222;4.510;2022-10-17T00:32:37;101389.66;;;12.49;100.00
27014;BME280;14556;52.222;4.510;2022-10-17T00:35:05;101388.00;;;12.48;100.00
27014;BME280;14556;52.222;4.510;2022-10-17T00:37:32;101387.63;;;12.51;100.00
27014;BME280;14556;52.222;4.510;2022-10-17T00:39:58;101380.19;;;12.53;100.00
27014;BME280;14556;52.222;4.510;2022-10-17T00:42:26;101388.88;;;12.55;100.00
27014;BME280;14556;52.222;4.510;2022-10-17T00:44:59;101395.09;;;12.55;100.00
27014;BME280;14556;52.222;4.510;2022-10-17T00:47:26;101388.66;;;12.50;100.00
27014;BME280;14556;52.222;4.510;2022-10-17T00:49:54;101394.66;;;12.52;100.00
27014;BME280;14556;52.222;4.510;2022-10-17T00:52:23;101373.94;;;12.39;100.00
27014;BME280;14556;52.222;4.510;2022-10-17T00:54:56;101379.50;;;12.37;100.00
27014;BME280;14556;52.222;4.510;2022-10-17T00:57:24;101386.56;;;12.45;100.00
27014;BME280;14556;52.222;4.510;2022-10-17T00:59:55;101367.28;;;12.35;100.00
27014;BME280;14556;52.222;4.510;2022-10-17T01:02:23;101390.66;;;12.41;100.00
27014;BME280;14556;52.222;4.510;2022-10-17T01:04:51;101372.06;;;12.32;100.00
27014;BME280;14556;52.222;4.510;2022-10-17T01:07:20;101383.81;;;12.38;100.00
27014;BME280;14556;52.222;4.510;2022-10-17T01:09:48;101374.13;;;12.37;100.00
27014;BME280;14556;52.222;4.510;2022-10-17T01:12:31;101375.97;;;12.37;100.00
27014;BME280;14556;52.222;4.510;2022-10-17T01:26:24;101358.91;;;12.44;100.00
27014;BME280;14556;52.222;4.510;2022-10-17T01:31:49;101355.63;;;12.56;100.00
27014;BME280;14556;52.222;4.510;2022-10-17T01:34:20;101328.56;;;12.44;100.00
27014;BME280;14556;52.222;4.510;2022-10-17T01:37:01;101335.84;;;12.57;100.00
27014;BME280;14556;52.222;4.510;2022-10-17T01:39:39;101324.28;;;12.56;100.00
27014;BME280;14556;52.222;4.510;2022-10-17T01:42:33;101297.97;;;12.38;100.00
27014;BME280;14556;52.222;4.510;2022-10-17T01:47:34;101317.28;;;12.62;100.00
27014;BME280;14556;52.222;4.510;2022-10-17T01:50:09;101320.41;;;12.66;100.00
27014;BME280;14556;52.222;4.510;2022-10-17T01:52:46;101322.03;;;12.67;100.00
27014;BME280;14556;52.222;4.510;2022-10-17T01:55:20;101323.50;;;12.69;100.00
27014;BME280;14556;52.222;4.510;2022-10-17T01:57:54;101317.50;;;12.67;100.00
27014;BME280;14556;52.222;4.510;2022-10-17T02:00:24;101303.03;;;12.62;100.00
27014;BME280;14556;52.222;4.510;2022-10-17T02:02:56;101311.53;;;12.72;100.00
27014;BME280;14556;52.222;4.510;2022-10-17T02:05:28;101317.75;;;12.73;100.00
27014;BME280;14556;52.222;4.510;2022-10-17T02:07:56;101308.22;;;12.77;100.00
27014;BME280;14556;52.222;4.510;2022-10-17T02:10:40;101308.88;;;12.79;100.00
27014;BME280;14556;52.222;4.510;2022-10-17T02:15:42;101301.44;;;12.81;100.00
27014;BME280;14556;52.222;4.510;2022-10-17T02:21:06;101307.03;;;12.86;100.00
27014;BME280;14556;52.222;4.510;2022-10-17T02:23:35;101291.56;;;12.88;100.00
27014;BME280;14556;52.222;4.510;2022-10-17T02:26:16;101282.25;;;12.84;100.00
27014;BME280;14556;52.222;4.510;2022-10-17T02:31:37;101272.97;;;12.80;100.00
27014;BME280;14556;52.222;4.510;2022-10-17T02:34:28;101266.34;;;12.82;100.00
27014;BME280;14556;52.222;4.510;2022-10-17T02:36:59;101275.63;;;12.80;100.00
27014;BME280;14556;52.222;4.510;2022-10-17T02:39:28;101282.25;;;12.84;100.00
27014;BME280;14556;52.222;4.510;2022-10-17T02:41:57;101246.69;;;12.62;100.00
27014;BME280;14556;52.222;4.510;2022-10-17T02:44:25;101285.13;;;12.82;100.00
27014;BME280;14556;52.222;4.510;2022-10-17T02:47:00;101286.97;;;12.82;100.00
27014;BME280;14556;52.222;4.510;2022-10-17T02:49:33;101292.97;;;12.84;100.00
27014;BME280;14556;52.222;4.510;2022-10-17T02:52:16;101291.97;;;12.85;100.00
27014;BME280;14556;52.222;4.510;2022-10-17T02:57:38;101310.56;;;12.87;100.00
27014;BME280;14556;52.222;4.510;2022-10-17T03:00:08;101312.00;;;12.89;100.00
27014;BME280;14556;52.222;4.510;2022-10-17T03:05:06;101301.47;;;12.88;100.00
27014;BME280;14556;52.222;4.510;2022-10-17T03:07:33;101306.63;;;12.89;100.00
27014;BME280;14556;52.222;4.510;2022-10-17T03:09:59;101316.78;;;12.94;100.00
27014;BME280;14556;52.222;4.510;2022-10-17T03:12:26;101316.34;;;12.97;100.00
27014;BME280;14556;52.222;4.510;2022-10-17T03:14:53;101326.06;;;13.05;100.00
27014;BME280;14556;52.222;4.510;2022-10-17T03:17:19;101307.28;;;13.05;100.00
27014;BME280;14556;52.222;4.510;2022-10-17T03:19:45;101299.44;;;13.10;100.00
27014;BME280;14556;52.222;4.510;2022-10-17T03:22:12;101303.16;;;13.09;100.00
27014;BME280;14556;52.222;4.510;2022-10-17T03:24:38;101293.84;;;13.12;100.00
27014;BME280;14556;52.222;4.510;2022-10-17T03:27:05;101297.59;;;13.24;100.00
27014;BME280;14556;52.222;4.510;2022-10-17T03:29:31;101307.31;;;13.25;100.00
27014;BME280;14556;52.222;4.510;2022-10-17T03:31:58;101309.16;;;13.25;100.00
27014;BME280;14556;52.222;4.510;2022-10-17T03:34:24;101301.75;;;13.27;100.00
27014;BME280;14556;52.222;4.510;2022-10-17T03:36:50;101315.16;;;13.27;100.00
27014;BME280;14556;52.222;4.510;2022-10-17T03:39:17;101302.16;;;13.24;100.00
27014;BME280;14556;52.222;4.510;2022-10-17T03:41:43;101297.78;;;13.36;100.00
27014;BME280;14556;52.222;4.510;2022-10-17T03:44:10;101296.16;;;13.28;100.00
27014;BME280;14556;52.222;4.510;2022-10-17T03:46:37;101307.75;;;13.29;100.00
27014;BME280;14556;52.222;4.510;2022-10-17T03:49:03;101296.56;;;13.32;100.00
27014;BME280;14556;52.222;4.510;2022-10-17T03:51:32;101304.63;;;13.32;100.00
27014;BME280;14556;52.222;4.510;2022-10-17T03:53:58;101289.53;;;13.31;100.00
27014;BME280;14556;52.222;4.510;2022-10-17T03:56:25;101306.47;;;13.32;100.00
27014;BME280;14556;52.222;4.510;2022-10-17T03:58:52;101309.81;;;13.40;100.00
27014;BME280;14556;52.222;4.510;2022-10-17T04:01:19;101309.59;;;13.35;100.00
27014;BME280;14556;52.222;4.510;2022-10-17T04:03:54;101317.44;;;13.37;100.00
27014;BME280;14556;52.222;4.510;2022-10-17T04:06:21;101310.63;;;13.34;100.00
27014;BME280;14556;52.222;4.510;2022-10-17T04:08:48;101314.34;;;13.33;100.00
27014;BME280;14556;52.222;4.510;2022-10-17T04:11:18;101326.13;;;13.32;100.00
27014;BME280;14556;52.222;4.510;2022-10-17T04:13:45;101325.50;;;13.44;100.00
27014;BME280;14556;52.222;4.510;2022-10-17T04:16:14;101329.22;;;13.49;100.00
27014;BME280;14556;52.222;4.510;2022-10-17T04:18:42;101332.56;;;13.45;100.00
27014;BME280;14556;52.222;4.510;2022-10-17T04:21:09;101324.91;;;13.48;100.00
27014;BME280;14556;52.222;4.510;2022-10-17T04:23:35;101327.97;;;13.45;100.00
27014;BME280;14556;52.222;4.510;2022-10-17T04:26:03;101331.72;;;13.37;100.00
27014;BME280;14556;52.222;4.510;2022-10-17T04:28:31;101327.19;;;13.45;100.00
27014;BME280;14556;52.222;4.510;2022-10-17T04:31:03;101341.63;;;13.37;100.00
27014;BME280;14556;52.222;4.510;2022-10-17T04:33:32;101348.66;;;13.45;100.00
27014;BME280;14556;52.222;4.510;2022-10-17T04:36:01;101357.34;;;13.47;100.00
27014;BME280;14556;52.222;4.510;2022-10-17T04:38:28;101365.19;;;13.41;100.00
27014;BME280;14556;52.222;4.510;2022-10-17T04:40:59;101354.63;;;13.33;100.00
27014;BME280;14556;52.222;4.510;2022-10-17T04:43:36;101356.94;;;13.43;100.00
27014;BME280;14556;52.222;4.510;2022-10-17T04:46:07;101328.59;;;13.40;100.00
27014;BME280;14556;52.222;4.510;2022-10-17T04:48:33;101350.16;;;13.68;100.00
27014;BME280;14556;52.222;4.510;2022-10-17T04:51:06;101347.88;;;13.64;100.00
27014;BME280;14556;52.222;4.510;2022-10-17T04:53:34;101342.66;;;13.49;100.00
27014;BME280;14556;52.222;4.510;2022-10-17T04:56:07;101332.13;;;13.34;100.00
27014;BME280;14556;52.222;4.510;2022-10-17T04:58:35;101355.69;;;13.46;100.00
27014;BME280;14556;52.222;4.510;2022-10-17T05:01:09;101351.97;;;13.47;100.00
27014;BME280;14556;52.222;4.510;2022-10-17T05:03:36;101354.25;;;13.50;100.00
27014;BME280;14556;52.222;4.510;2022-10-17T05:06:09;101343.28;;;13.38;100.00
27014;BME280;14556;52.222;4.510;2022-10-17T05:08:36;101352.78;;;13.34;100.00
27014;BME280;14556;52.222;4.510;2022-10-17T05:11:03;101356.09;;;13.42;100.00
27014;BME280;14556;52.222;4.510;2022-10-17T05:13:31;101361.06;;;13.46;100.00
27014;BME280;14556;52.222;4.510;2022-10-17T05:15:59;101360.44;;;13.44;100.00
27014;BME280;14556;52.222;4.510;2022-10-17T05:18:27;101362.69;;;13.33;100.00
27014;BME280;14556;52.222;4.510;2022-10-17T05:20:53;101378.16;;;13.17;100.00
27014;BME280;14556;52.222;4.510;2022-10-17T05:23:20;101378.81;;;13.20;100.00
27014;BME280;14556;52.222;4.510;2022-10-17T05:25:46;101381.09;;;13.36;100.00
27014;BME280;14556;52.222;4.510;2022-10-17T05:28:13;101390.19;;;13.42;100.00
27014;BME280;14556;52.222;4.510;2022-10-17T05:30:39;101394.09;;;13.33;100.00
27014;BME280;14556;52.222;4.510;2022-10-17T05:33:06;101387.09;;;13.32;100.00
27014;BME280;14556;52.222;4.510;2022-10-17T05:35:32;101374.28;;;13.34;100.00
27014;BME280;14556;52.222;4.510;2022-10-17T05:37:58;101387.94;;;13.46;100.00
27014;BME280;14556;52.222;4.510;2022-10-17T05:40:25;101388.34;;;13.42;100.00
27014;BME280;14556;52.222;4.510;2022-10-17T05:42:52;101379.03;;;13.32;100.00
27014;BME280;14556;52.222;4.510;2022-10-17T05:45:18;101370.13;;;13.31;100.00
27014;BME280;14556;52.222;4.510;2022-10-17T05:47:45;101382.13;;;13.42;100.00
27014;BME280;14556;52.222;4.510;2022-10-17T05:50:11;101382.13;;;13.35;100.00
27014;BME280;14556;52.222;4.510;2022-10-17T05:52:38;101370.97;;;13.38;100.00
27014;BME280;14556;52.222;4.510;2022-10-17T05:55:07;101369.97;;;13.39;100.00
27014;BME280;14556;52.222;4.510;2022-10-17T05:57:34;101384.63;;;13.44;100.00
27014;BME280;14556;52.222;4.510;2022-10-17T06:00:00;101376.56;;;13.50;100.00
27014;BME280;14556;52.222;4.510;2022-10-17T06:02:28;101376.56;;;13.44;100.00
27014;BME280;14556;52.222;4.510;2022-10-17T06:04:55;101371.41;;;13.49;100.00
27014;BME280;14556;52.222;4.510;2022-10-17T06:07:21;101360.44;;;13.44;100.00
27014;BME280;14556;52.222;4.510;2022-10-17T06:09:48;101356.94;;;13.50;100.00
27014;BME280;14556;52.222;4.510;2022-10-17T06:12:14;101371.84;;;13.52;100.00
27014;BME280;14556;52.222;4.510;2022-10-17T06:14:41;101387.56;;;13.56;100.00
27014;BME280;14556;52.222;4.510;2022-10-17T06:17:07;101381.97;;;13.57;100.00
27014;BME280;14556;52.222;4.510;2022-10-17T06:19:40;101401.63;;;13.64;100.00
27014;BME280;14556;52.222;4.510;2022-10-17T06:22:07;101411.16;;;13.60;100.00
27014;BME280;14556;52.222;4.510;2022-10-17T06:24:33;101409.91;;;13.63;100.00
27014;BME280;14556;52.222;4.510;2022-10-17T06:27:00;101402.88;;;13.55;100.00
27014;BME280;14556;52.222;4.510;2022-10-17T06:29:26;101409.47;;;13.59;100.00
27014;BME280;14556;52.222;4.510;2022-10-17T06:31:53;101406.78;;;13.52;100.00
27014;BME280;14556;52.222;4.510;2022-10-17T06:34:19;101412.00;;;13.74;100.00
27014;BME280;14556;52.222;4.510;2022-10-17T06:36:46;101405.97;;;13.99;100.00
27014;BME280;14556;52.222;4.510;2022-10-17T06:39:13;101426.88;;;14.11;100.00
27014;BME280;14556;52.222;4.510;2022-10-17T06:41:39;101434.13;;;14.10;100.00
27014;BME280;14556;52.222;4.510;2022-10-17T06:44:06;101433.72;;;14.00;100.00
27014;BME280;14556;52.222;4.510;2022-10-17T06:46:37;101422.53;;;14.17;100.00
27014;BME280;14556;52.222;4.510;2022-10-17T06:49:05;101431.19;;;14.19;100.00
27014;BME280;14556;52.222;4.510;2022-10-17T06:51:35;101432.47;;;14.16;100.00
27014;BME280;14556;52.222;4.510;2022-10-17T06:54:03;101436.81;;;14.17;100.00
27014;BME280;14556;52.222;4.510;2022-10-17T06:56:29;101429.59;;;13.97;100.00
27014;BME280;14556;52.222;4.510;2022-10-17T06:58:56;101415.91;;;13.78;100.00
27014;BME280;14556;52.222;4.510;2022-10-17T07:01:22;101428.97;;;14.02;100.00
27014;BME280;14556;52.222;4.510;2022-10-17T07:03:49;101434.50;;;14.34;100.00
27014;BME280;14556;52.222;4.510;2022-10-17T07:06:15;101418.81;;;14.04;100.00
27014;BME280;14556;52.222;4.510;2022-10-17T07:08:44;101452.75;;;14.12;100.00
27014;BME280;14556;52.222;4.510;2022-10-17T07:11:15;101457.91;;;14.00;100.00
27014;BME280;14556;52.222;4.510;2022-10-17T07:13:42;101459.75;;;14.06;100.00
27014;BME280;14556;52.222;4.510;2022-10-17T07:16:09;101471.97;;;14.29;100.00
27014;BME280;14556;52.222;4.510;2022-10-17T07:18:36;101496.81;;;14.31;100.00
27014;BME280;14556;52.222;4.510;2022-10-17T07:21:03;101510.06;;;14.19;100.00
27014;BME280;14556;52.222;4.510;2022-10-17T07:23:30;101512.75;;;14.12;100.00
27014;BME280;14556;52.222;4.510;2022-10-17T07:26:00;101527.00;;;13.99;100.00
27014;BME280;14556;52.222;4.510;2022-10-17T07:28:27;101534.47;;;14.04;100.00
27014;BME280;14556;52.222;4.510;2022-10-17T07:30:54;101536.75;;;14.14;100.00
27014;BME280;14556;52.222;4.510;2022-10-17T07:33:20;101548.09;;;13.96;100.00
27014;BME280;14556;52.222;4.510;2022-10-17T07:35:47;101557.22;;;13.88;100.00
27014;BME280;14556;52.222;4.510;2022-10-17T07:38:13;101542.91;;;13.74;100.00
27014;BME280;14556;52.222;4.510;2022-10-17T07:40:39;101573.31;;;13.81;100.00
27014;BME280;14556;52.222;4.510;2022-10-17T07:43:06;101568.34;;;13.78;100.00
27014;BME280;14556;52.222;4.510;2022-10-17T07:45:32;101579.94;;;13.85;100.00
27014;BME280;14556;52.222;4.510;2022-10-17T07:47:59;101585.94;;;13.87;100.00
27014;BME280;14556;52.222;4.510;2022-10-17T07:50:25;101587.22;;;13.98;100.00
27014;BME280;14556;52.222;4.510;2022-10-17T07:52:52;101610.88;;;14.17;100.00
27014;BME280;14556;52.222;4.510;2022-10-17T07:55:18;101614.56;;;14.02;100.00
27014;BME280;14556;52.222;4.510;2022-10-17T07:57:44;101622.41;;;13.97;100.00
27014;BME280;14556;52.222;4.510;2022-10-17T08:00:11;101636.06;;;14.02;100.00
27014;BME280;14556;52.222;4.510;2022-10-17T08:02:38;101629.22;;;13.99;100.00
27014;BME280;14556;52.222;4.510;2022-10-17T08:05:05;101643.53;;;14.07;100.00
27014;BME280;14556;52.222;4.510;2022-10-17T08:07:31;101639.53;;;13.89;100.00
27014;BME280;14556;52.222;4.510;2022-10-17T08:09:58;101636.84;;;13.96;100.00
27014;BME280;14556;52.222;4.510;2022-10-17T08:12:24;101644.38;;;14.14;100.00
27014;BME280;14556;52.222;4.510;2022-10-17T08:14:51;101656.97;;;14.07;100.00
27014;BME280;14556;52.222;4.510;2022-10-17T08:17:17;101644.31;;;13.94;100.00
27014;BME280;14556;52.222;4.510;2022-10-17T08:19:44;101655.66;;;13.89;100.00
27014;BME280;14556;52.222;4.510;2022-10-17T08:22:10;101648.63;;;13.88;100.00
27014;BME280;14556;52.222;4.510;2022-10-17T08:24:37;101650.50;;;13.94;100.00
27014;BME280;14556;52.222;4.510;2022-10-17T08:27:03;101650.53;;;14.01;100.00
27014;BME280;14556;52.222;4.510;2022-10-17T08:29:39;101628.22;;;14.07;100.00
27014;BME280;14556;52.222;4.510;2022-10-17T08:32:05;101621.38;;;14.05;100.00
27014;BME280;14556;52.222;4.510;2022-10-17T08:34:35;101627.59;;;14.05;100.00
27014;BME280;14556;52.222;4.510;2022-10-17T08:37:01;101610.56;;;13.91;100.00
27014;BME280;14556;52.222;4.510;2022-10-17T08:39:28;101601.06;;;13.88;100.00
27014;BME280;14556;52.222;4.510;2022-10-17T08:44:56;101608.53;;;14.00;100.00
27014;BME280;14556;52.222;4.510;2022-10-17T08:47:28;101602.94;;;13.95;100.00
27014;BME280;14556;52.222;4.510;2022-10-17T08:50:02;101590.75;;;13.99;100.00
27014;BME280;14556;52.222;4.510;2022-10-17T08:52:39;101589.72;;;14.00;100.00
27014;BME280;14556;52.222;4.510;2022-10-17T08:55:52;101585.97;;;14.01;100.00
27014;BME280;14556;52.222;4.510;2022-10-17T08:58:20;101589.06;;;13.91;100.00
27014;BME280;14556;52.222;4.510;2022-10-17T09:01:11;101619.28;;;14.00;100.00
27014;BME280;14556;52.222;4.510;2022-10-17T09:09:24;101644.13;;;13.95;100.00
27014;BME280;14556;52.222;4.510;2022-10-17T09:12:02;101651.78;;;14.05;100.00
27014;BME280;14556;52.222;4.510;2022-10-17T09:17:44;101668.78;;;14.12;100.00
27014;BME280;14556;52.222;4.510;2022-10-17T09:20:24;101644.34;;;14.07;100.00
27014;BME280;14556;52.222;4.510;2022-10-17T09:22:57;101655.53;;;14.04;100.00
27014;BME280;14556;52.222;4.510;2022-10-17T09:25:25;101634.22;;;14.02;100.00
27014;BME280;14556;52.222;4.510;2022-10-17T09:28:05;101638.97;;;14.00;100.00
27014;BME280;14556;52.222;4.510;2022-10-17T09:30:46;101635.44;;;14.07;100.00
27014;BME280;14556;52.222;4.510;2022-10-17T09:33:40;101639.81;;;14.08;100.00
27014;BME280;14556;52.222;4.510;2022-10-17T09:36:28;101648.31;;;14.11;100.00
27014;BME280;14556;52.222;4.510;2022-10-17T09:38:59;101681.00;;;14.15;100.00
27014;BME280;14556;52.222;4.510;2022-10-17T09:41:33;101689.50;;;14.19;100.00
27014;BME280;14556;52.222;4.510;2022-10-17T09:44:19;101686.19;;;14.17;100.00
27014;BME280;14556;52.222;4.510;2022-10-17T09:49:26;101710.78;;;14.13;100.00
27014;BME280;14556;52.222;4.510;2022-10-17T09:51:55;101721.78;;;14.19;100.00
27014;BME280;14556;52.222;4.510;2022-10-17T09:54:25;101704.38;;;14.08;100.00
27014;BME280;14556;52.222;4.510;2022-10-17T09:57:08;101730.47;;;14.14;100.00
27014;BME280;14556;52.222;4.510;2022-10-17T09:59:37;101736.28;;;14.18;100.00
27014;BME280;14556;52.222;4.510;2022-10-17T10:02:21;101748.69;;;14.19;100.00
27014;BME280;14556;52.222;4.510;2022-10-17T10:05:00;101746.44;;;14.29;100.00
27014;BME280;14556;52.222;4.510;2022-10-17T10:07:33;101749.13;;;14.29;100.00
27014;BME280;14556;52.222;4.510;2022-10-17T10:10:03;101749.78;;;14.31;100.00
27014;BME280;14556;52.222;4.510;2022-10-17T10:12:35;101747.28;;;14.30;100.00
27014;BME280;14556;52.222;4.510;2022-10-17T10:15:33;101758.03;;;14.23;100.00
27014;BME280;14556;52.222;4.510;2022-10-17T10:18:00;101752.19;;;14.12;100.00
27014;BME280;14556;52.222;4.510;2022-10-17T10:20:35;101758.88;;;14.23;100.00
27014;BME280;14556;52.222;4.510;2022-10-17T10:25:31;101775.44;;;14.27;100.00
27014;BME280;14556;52.222;4.510;2022-10-17T10:27:59;101769.84;;;14.22;100.00
27014;BME280;14556;52.222;4.510;2022-10-17T10:30:29;101770.22;;;14.19;100.00
27014;BME280;14556;52.222;4.510;2022-10-17T10:33:00;101779.97;;;14.20;100.00
27014;BME280;14556;52.222;4.510;2022-10-17T10:35:30;101779.53;;;14.16;100.00
27014;BME280;14556;52.222;4.510;2022-10-17T10:38:00;101777.63;;;14.10;100.00
27014;BME280;14556;52.222;4.510;2022-10-17T10:40:35;101788.22;;;14.11;100.00
27014;BME280;14556;52.222;4.510;2022-10-17T10:43:04;101779.47;;;14.02;100.00
27014;BME280;14556;52.222;4.510;2022-10-17T10:48:26;101801.47;;;14.13;100.00
27014;BME280;14556;52.222;4.510;2022-10-17T10:51:01;101790.41;;;14.01;100.00
27014;BME280;14556;52.222;4.510;2022-10-17T10:53:49;101806.41;;;14.09;100.00
27014;BME280;14556;52.222;4.510;2022-10-17T10:56:25;101797.69;;;14.07;100.00
27014;BME280;14556;52.222;4.510;2022-10-17T10:59:00;101786.06;;;14.00;100.00
27014;BME280;14556;52.222;4.510;2022-10-17T11:07:12;101797.09;;;14.12;100.00
27014;BME280;14556;52.222;4.510;2022-10-17T11:12:23;101788.38;;;14.10;100.00
27014;BME280;14556;52.222;4.510;2022-10-17T11:17:58;101798.78;;;14.13;100.00
27014;BME280;14556;52.222;4.510;2022-10-17T11:20:40;101806.44;;;14.16;100.00
27014;BME280;14556;52.222;4.510;2022-10-17T11:25:47;101836.91;;;14.23;100.00
27014;BME280;14556;52.222;4.510;2022-10-17T11:28:19;101837.91;;;14.22;100.00
27014;BME280;14556;52.222;4.510;2022-10-17T11:31:02;101847.88;;;14.22;100.00
27014;BME280;14556;52.222;4.510;2022-10-17T11:33:53;101852.88;;;14.32;100.00
27014;BME280;14556;52.222;4.510;2022-10-17T11:36:29;101848.50;;;14.31;100.00
27014;BME280;14556;52.222;4.510;2022-10-17T11:39:01;101862.88;;;14.45;100.00
27014;BME280;14556;52.222;4.510;2022-10-17T11:41:34;101864.94;;;14.43;100.00
27014;BME280;14556;52.222;4.510;2022-10-17T11:44:10;101873.22;;;14.41;100.00
27014;BME280;14556;52.222;4.510;2022-10-17T11:46:38;101883.81;;;14.49;100.00
27014;BME280;14556;52.222;4.510;2022-10-17T11:49:12;101871.97;;;14.37;100.00
27014;BME280;14556;52.222;4.510;2022-10-17T11:52:22;101892.94;;;14.55;100.00
27014;BME280;14556;52.222;4.510;2022-10-17T11:55:23;101885.72;;;14.56;100.00
27014;BME280;14556;52.222;4.510;2022-10-17T11:57:58;101890.66;;;14.52;100.00
27014;BME280;14556;52.222;4.510;2022-10-17T12:00:46;101893.22;;;14.60;100.00
27014;BME280;14556;52.222;4.510;2022-10-17T12:03:28;101891.72;;;14.58;100.00
27014;BME280;14556;52.222;4.510;2022-10-17T12:06:12;101905.03;;;14.73;100.00
27014;BME280;14556;52.222;4.510;2022-10-17T12:08:48;101896.75;;;14.74;100.00
27014;BME280;14556;52.222;4.510;2022-10-17T12:13:47;101904.22;;;14.66;100.00
27014;BME280;14556;52.222;4.510;2022-10-17T12:18:51;101879.47;;;14.55;100.00
27014;BME280;14556;52.222;4.510;2022-10-17T12:21:58;101904.03;;;14.74;100.00
27014;BME280;14556;52.222;4.510;2022-10-17T12:27:23;101906.53;;;14.75;100.00
27014;BME280;14556;52.222;4.510;2022-10-17T12:29:58;101916.88;;;14.79;100.00
27014;BME280;14556;52.222;4.510;2022-10-17T12:32:25;101910.44;;;14.73;100.00
27014;BME280;14556;52.222;4.510;2022-10-17T12:35:02;101919.16;;;14.75;100.00
27014;BME280;14556;52.222;4.510;2022-10-17T12:45:44;101921.63;;;14.77;100.00
27014;BME280;14556;52.222;4.510;2022-10-17T12:48:11;101920.25;;;14.81;100.00
27014;BME280;14556;52.222;4.510;2022-10-17T12:51:10;101924.38;;;14.83;100.00
27014;BME280;14556;52.222;4.510;2022-10-17T12:54:14;101929.59;;;14.85;100.00
27014;BME280;14556;52.222;4.510;2022-10-17T12:56:44;101911.28;;;14.80;100.00
27014;BME280;14556;52.222;4.510;2022-10-17T12:59:15;101931.69;;;14.90;100.00
27014;BME280;14556;52.222;4.510;2022-10-17T13:01:46;101923.56;;;14.83;100.00
27014;BME280;14556;52.222;4.510;2022-10-17T13:04:14;101935.38;;;14.89;100.00
27014;BME280;14556;52.222;4.510;2022-10-17T13:06:50;101893.22;;;14.60;100.00
27014;BME280;14556;52.222;4.510;2022-10-17T13:09:29;101927.75;;;14.92;100.00
27014;BME280;14556;52.222;4.510;2022-10-17T13:11:59;101937.31;;;15.02;100.00
27014;BME280;14556;52.222;4.510;2022-10-17T13:14:27;101944.16;;;15.04;100.00
27014;BME280;14556;52.222;4.510;2022-10-17T13:17:02;101948.09;;;15.02;100.00
27014;BME280;14556;52.222;4.510;2022-10-17T13:19:41;101943.91;;;14.92;100.00
27014;BME280;14556;52.222;4.510;2022-10-17T13:22:26;101928.69;;;14.78;100.00
27014;BME280;14556;52.222;4.510;2022-10-17T13:25:15;101959.47;;;14.97;100.00
27014;BME280;14556;52.222;4.510;2022-10-17T13:27:42;101956.16;;;14.95;100.00
27014;BME280;14556;52.222;4.510;2022-10-17T13:30:29;101932.28;;;14.85;100.00
27014;BME280;14556;52.222;4.510;2022-10-17T13:32:58;101941.00;;;14.94;100.00
27014;BME280;14556;52.222;4.510;2022-10-17T13:35:33;101917.97;;;14.84;100.00
27014;BME280;14556;52.222;4.510;2022-10-17T13:38:26;101940.66;;;15.04;100.00
27014;BME280;14556;52.222;4.510;2022-10-17T13:40:54;101956.59;;;15.05;100.00
27014;BME280;14556;52.222;4.510;2022-10-17T13:43:36;101955.56;;;15.06;100.00
27014;BME280;14556;52.222;4.510;2022-10-17T13:46:04;101955.34;;;15.08;100.00
27014;BME280;14556;52.222;4.510;2022-10-17T13:48:51;101960.59;;;15.16;100.00
27014;BME280;14556;52.222;4.510;2022-10-17T13:51:18;101960.78;;;15.15;100.00
27014;BME280;14556;52.222;4.510;2022-10-17T13:53:45;101960.38;;;15.11;100.00
27014;BME280;14556;52.222;4.510;2022-10-17T13:58:58;101972.38;;;15.15;100.00
27014;BME280;14556;52.222;4.510;2022-10-17T14:01:27;101962.22;;;15.10;100.00
27014;BME280;14556;52.222;4.510;2022-10-17T14:03:54;101968.88;;;15.15;100.00
27014;BME280;14556;52.222;4.510;2022-10-17T14:06:40;101956.84;;;15.10;100.00
27014;BME280;14556;52.222;4.510;2022-10-17T14:09:24;101987.38;;;15.31;100.00
27014;BME280;14556;52.222;4.510;2022-10-17T14:12:18;101984.66;;;15.25;100.00
27014;BME280;14556;52.222;4.510;2022-10-17T14:14:48;101964.50;;;15.14;100.00
27014;BME280;14556;52.222;4.510;2022-10-17T14:17:35;101972.25;;;15.30;100.00
27014;BME280;14556;52.222;4.510;2022-10-17T14:20:05;101981.75;;;15.26;100.00
27014;BME280;14556;52.222;4.510;2022-10-17T14:22:53;101977.41;;;15.25;100.00
27014;BME280;14556;52.222;4.510;2022-10-17T14:25:40;101988.81;;;15.27;100.00